CEB645 RPLL-RPVP
Flight info
| Callsign | CEB645 |
|---|---|
| Flight time | N/A |
| Altitude | 38000 |
| Route | BUCAL2R BUCAL M646 NOMYO NOMYO2W |
| Aircraft | A339/H-SADE1E2E3GHIJ3J5M1P2RWXY/LB2D1 |
Departure
| Time | 2026-05-06 03:05 |
|---|---|
| Airport | Ninoy Aquino International Airport (RPLL) |
Arrival
| Time | N/A |
|---|---|
| Airport | Puerto Princesa International Airport / PAF Antonio Bautista Air Base (RPVP) |
| Time | Latitude | Longitude | Altitude | Speed | Heading |
|---|---|---|---|---|---|
| 2026-05-06 02:05 | 14.51843 | 121.01314 | 93 ft | 0 kts | 46° |
| 2026-05-06 02:48 | 14.51840 | 121.01310 | 93 ft | 2 kts | 46° |
| 2026-05-06 02:48 | 14.51830 | 121.01299 | 92 ft | 2 kts | 46° |
| 2026-05-06 02:49 | 14.51819 | 121.01288 | 93 ft | 2 kts | 46° |
| 2026-05-06 02:49 | 14.51811 | 121.01279 | 92 ft | 2 kts | 46° |
| 2026-05-06 02:49 | 14.51802 | 121.01269 | 92 ft | 2 kts | 55° |
| 2026-05-06 02:49 | 14.51797 | 121.01256 | 92 ft | 2 kts | 85° |
| 2026-05-06 02:50 | 14.51798 | 121.01241 | 92 ft | 2 kts | 109° |
| 2026-05-06 02:50 | 14.51805 | 121.01228 | 92 ft | 1 kts | 133° |
| 2026-05-06 02:50 | 14.51808 | 121.01224 | 93 ft | 0 kts | 136° |
| 2026-05-06 02:53 | 14.51804 | 121.01228 | 92 ft | 1 kts | 133° |
| 2026-05-06 02:53 | 14.51792 | 121.01242 | 92 ft | 3 kts | 133° |
| 2026-05-06 02:54 | 14.51771 | 121.01264 | 92 ft | 5 kts | 134° |
| 2026-05-06 02:54 | 14.51742 | 121.01295 | 92 ft | 6 kts | 135° |
| 2026-05-06 02:54 | 14.51704 | 121.01320 | 92 ft | 6 kts | 172° |
| 2026-05-06 02:54 | 14.51660 | 121.01311 | 92 ft | 7 kts | 186° |
| 2026-05-06 02:55 | 14.51610 | 121.01329 | 92 ft | 8 kts | 141° |
| 2026-05-06 02:55 | 14.51563 | 121.01375 | 92 ft | 9 kts | 135° |
| 2026-05-06 02:55 | 14.51514 | 121.01427 | 92 ft | 10 kts | 136° |
| 2026-05-06 02:55 | 14.51461 | 121.01480 | 92 ft | 11 kts | 135° |
| 2026-05-06 02:56 | 14.51403 | 121.01540 | 92 ft | 12 kts | 134° |
| 2026-05-06 02:56 | 14.51342 | 121.01603 | 92 ft | 12 kts | 135° |
| 2026-05-06 02:56 | 14.51279 | 121.01668 | 92 ft | 13 kts | 135° |
| 2026-05-06 02:56 | 14.51213 | 121.01736 | 92 ft | 13 kts | 135° |
| 2026-05-06 02:57 | 14.51145 | 121.01807 | 92 ft | 14 kts | 135° |
| 2026-05-06 02:57 | 14.51087 | 121.01867 | 92 ft | 9 kts | 134° |
| 2026-05-06 02:57 | 14.51043 | 121.01911 | 92 ft | 7 kts | 146° |
| 2026-05-06 02:57 | 14.51002 | 121.01904 | 92 ft | 6 kts | 224° |
| 2026-05-06 02:58 | 14.50974 | 121.01865 | 92 ft | 7 kts | 237° |
| 2026-05-06 02:58 | 14.50944 | 121.01813 | 92 ft | 9 kts | 240° |
| 2026-05-06 02:58 | 14.50910 | 121.01753 | 92 ft | 10 kts | 239° |
| 2026-05-06 02:58 | 14.50873 | 121.01685 | 92 ft | 11 kts | 240° |
| 2026-05-06 02:59 | 14.50833 | 121.01612 | 92 ft | 12 kts | 239° |
| 2026-05-06 02:59 | 14.50788 | 121.01533 | 92 ft | 13 kts | 239° |
| 2026-05-06 02:59 | 14.50741 | 121.01450 | 92 ft | 13 kts | 241° |
| 2026-05-06 02:59 | 14.50693 | 121.01361 | 92 ft | 14 kts | 240° |
| 2026-05-06 03:00 | 14.50642 | 121.01270 | 92 ft | 14 kts | 240° |
| 2026-05-06 03:00 | 14.50590 | 121.01176 | 92 ft | 15 kts | 239° |
| 2026-05-06 03:00 | 14.50536 | 121.01080 | 92 ft | 15 kts | 240° |
| 2026-05-06 03:00 | 14.50481 | 121.00980 | 92 ft | 16 kts | 239° |
| 2026-05-06 03:01 | 14.50426 | 121.00881 | 92 ft | 16 kts | 240° |
| 2026-05-06 03:01 | 14.50368 | 121.00777 | 92 ft | 16 kts | 240° |
| 2026-05-06 03:01 | 14.50311 | 121.00674 | 92 ft | 16 kts | 240° |
| 2026-05-06 03:01 | 14.50252 | 121.00568 | 92 ft | 17 kts | 240° |
| 2026-05-06 03:02 | 14.50192 | 121.00462 | 92 ft | 17 kts | 240° |
| 2026-05-06 03:02 | 14.50133 | 121.00353 | 92 ft | 17 kts | 240° |
| 2026-05-06 03:02 | 14.50072 | 121.00245 | 92 ft | 17 kts | 240° |
| 2026-05-06 03:02 | 14.50011 | 121.00137 | 92 ft | 17 kts | 240° |
| 2026-05-06 03:03 | 14.49952 | 121.00028 | 92 ft | 17 kts | 240° |
| 2026-05-06 03:03 | 14.49914 | 120.99974 | 92 ft | 7 kts | 212° |
| 2026-05-06 03:03 | 14.49859 | 120.99978 | 92 ft | 8 kts | 154° |
| 2026-05-06 03:03 | 14.49813 | 121.00020 | 92 ft | 9 kts | 112° |
| 2026-05-06 03:04 | 14.49826 | 121.00087 | 92 ft | 10 kts | 63° |
| 2026-05-06 03:04 | 14.49872 | 121.00172 | 92 ft | 24 kts | 60° |
| 2026-05-06 03:04 | 14.50070 | 121.00526 | 93 ft | 89 kts | 60° |
| 2026-05-06 03:04 | 14.50482 | 121.01266 | 93 ft | 144 kts | 61° |
| 2026-05-06 03:05 | 14.51045 | 121.02267 | 301 ft | 171 kts | 59° |
| 2026-05-06 03:05 | 14.51611 | 121.03306 | 937 ft | 167 kts | 63° |
| 2026-05-06 03:05 | 14.52131 | 121.04345 | 1593 ft | 165 kts | 65° |
| 2026-05-06 03:05 | 14.52639 | 121.05386 | 2085 ft | 164 kts | 63° |
| 2026-05-06 03:06 | 14.53236 | 121.06431 | 2337 ft | 176 kts | 60° |
| 2026-05-06 03:06 | 14.53896 | 121.07561 | 2598 ft | 189 kts | 59° |
| 2026-05-06 03:06 | 14.54590 | 121.08763 | 2864 ft | 202 kts | 59° |
| 2026-05-06 03:06 | 14.55329 | 121.10059 | 3132 ft | 217 kts | 60° |
| 2026-05-06 03:07 | 14.56071 | 121.11468 | 3426 ft | 233 kts | 70° |
| 2026-05-06 03:07 | 14.56299 | 121.13171 | 3726 ft | 252 kts | 95° |
| 2026-05-06 03:07 | 14.55701 | 121.14926 | 4035 ft | 271 kts | 124° |
| 2026-05-06 03:07 | 14.54419 | 121.16383 | 4555 ft | 281 kts | 133° |
| 2026-05-06 03:08 | 14.53043 | 121.17820 | 5171 ft | 285 kts | 137° |
| 2026-05-06 03:08 | 14.51628 | 121.19261 | 5867 ft | 287 kts | 138° |
| 2026-05-06 03:08 | 14.50216 | 121.20701 | 6419 ft | 294 kts | 137° |
| 2026-05-06 03:08 | 14.48584 | 121.21976 | 7009 ft | 294 kts | 159° |
| 2026-05-06 03:09 | 14.46631 | 121.22417 | 7674 ft | 290 kts | 184° |
| 2026-05-06 03:09 | 14.44714 | 121.21935 | 8303 ft | 288 kts | 211° |
| 2026-05-06 03:09 | 14.43105 | 121.20724 | 8906 ft | 290 kts | 219° |
| 2026-05-06 03:09 | 14.41462 | 121.19476 | 9504 ft | 295 kts | 218° |
| 2026-05-06 03:10 | 14.39782 | 121.18230 | 10095 ft | 300 kts | 218° |
| 2026-05-06 03:10 | 14.38092 | 121.16976 | 10603 ft | 308 kts | 218° |
| 2026-05-06 03:10 | 14.36332 | 121.15658 | 10978 ft | 320 kts | 218° |
| 2026-05-06 03:10 | 14.34529 | 121.14304 | 11575 ft | 324 kts | 219° |
| 2026-05-06 03:11 | 14.32686 | 121.12918 | 12184 ft | 329 kts | 219° |
| 2026-05-06 03:11 | 14.30856 | 121.11537 | 12796 ft | 332 kts | 219° |
| 2026-05-06 03:11 | 14.28988 | 121.10127 | 13461 ft | 334 kts | 219° |
| 2026-05-06 03:11 | 14.27117 | 121.08716 | 14006 ft | 340 kts | 218° |
| 2026-05-06 03:12 | 14.25193 | 121.07263 | 14572 ft | 346 kts | 218° |
| 2026-05-06 03:12 | 14.23247 | 121.05795 | 15181 ft | 350 kts | 218° |
| 2026-05-06 03:12 | 14.21270 | 121.04302 | 15799 ft | 353 kts | 218° |
| 2026-05-06 03:12 | 14.19290 | 121.02808 | 16358 ft | 359 kts | 218° |
| 2026-05-06 03:13 | 14.17267 | 121.01283 | 16941 ft | 363 kts | 218° |
| 2026-05-06 03:13 | 14.15223 | 120.99744 | 17554 ft | 367 kts | 218° |
| 2026-05-06 03:13 | 14.13174 | 120.98201 | 18169 ft | 370 kts | 218° |
| 2026-05-06 03:13 | 14.11077 | 120.96622 | 18789 ft | 374 kts | 217° |
| 2026-05-06 03:14 | 14.08995 | 120.95052 | 19395 ft | 377 kts | 217° |
| 2026-05-06 03:14 | 14.06872 | 120.93454 | 19994 ft | 381 kts | 217° |
| 2026-05-06 03:14 | 14.04750 | 120.91856 | 20571 ft | 384 kts | 217° |
| 2026-05-06 03:14 | 14.02571 | 120.90215 | 21147 ft | 388 kts | 217° |
| 2026-05-06 03:15 | 14.00404 | 120.88584 | 21707 ft | 391 kts | 217° |
| 2026-05-06 03:15 | 13.98193 | 120.86919 | 22270 ft | 394 kts | 217° |
| 2026-05-06 03:15 | 13.95981 | 120.85256 | 22812 ft | 398 kts | 217° |
| 2026-05-06 03:15 | 13.93754 | 120.83581 | 23344 ft | 401 kts | 217° |
| 2026-05-06 03:16 | 13.91505 | 120.81891 | 23867 ft | 404 kts | 217° |
| 2026-05-06 03:16 | 13.89230 | 120.80180 | 24381 ft | 407 kts | 217° |
| 2026-05-06 03:16 | 13.86941 | 120.78460 | 24870 ft | 410 kts | 217° |
| 2026-05-06 03:16 | 13.84646 | 120.76736 | 25345 ft | 413 kts | 217° |
| 2026-05-06 03:17 | 13.82355 | 120.75016 | 25812 ft | 416 kts | 216° |
| 2026-05-06 03:17 | 13.80013 | 120.73257 | 26268 ft | 418 kts | 216° |
| 2026-05-06 03:17 | 13.77649 | 120.71483 | 26716 ft | 421 kts | 216° |
| 2026-05-06 03:17 | 13.75283 | 120.69707 | 27152 ft | 424 kts | 216° |
| 2026-05-06 03:18 | 13.72911 | 120.67928 | 27578 ft | 426 kts | 216° |
| 2026-05-06 03:18 | 13.70525 | 120.66139 | 27992 ft | 429 kts | 216° |
| 2026-05-06 03:18 | 13.68121 | 120.64338 | 28396 ft | 431 kts | 216° |
| 2026-05-06 03:18 | 13.65702 | 120.62525 | 28793 ft | 433 kts | 216° |
| 2026-05-06 03:19 | 13.63266 | 120.60711 | 29183 ft | 436 kts | 215° |
| 2026-05-06 03:19 | 13.60749 | 120.58987 | 29565 ft | 438 kts | 212° |
| 2026-05-06 03:19 | 13.58125 | 120.57403 | 29941 ft | 440 kts | 208° |
| 2026-05-06 03:19 | 13.55403 | 120.55979 | 30306 ft | 442 kts | 205° |
| 2026-05-06 03:20 | 13.49821 | 120.53296 | 31013 ft | 446 kts | 204° |
| 2026-05-06 03:20 | 13.47025 | 120.51961 | 31346 ft | 448 kts | 204° |
| 2026-05-06 03:20 | 13.44180 | 120.50599 | 31684 ft | 450 kts | 205° |
| 2026-05-06 03:21 | 13.41369 | 120.49250 | 32011 ft | 452 kts | 205° |
| 2026-05-06 03:21 | 13.38526 | 120.47884 | 32334 ft | 454 kts | 205° |
| 2026-05-06 03:21 | 13.35674 | 120.46513 | 32648 ft | 456 kts | 205° |
| 2026-05-06 03:21 | 13.32789 | 120.45127 | 32959 ft | 457 kts | 205° |
| 2026-05-06 03:22 | 13.29919 | 120.43746 | 33253 ft | 459 kts | 205° |
| 2026-05-06 03:22 | 13.27040 | 120.42361 | 33542 ft | 461 kts | 205° |
| 2026-05-06 03:22 | 13.24145 | 120.40968 | 33831 ft | 463 kts | 205° |
| 2026-05-06 03:22 | 13.21224 | 120.39564 | 34117 ft | 464 kts | 205° |
| 2026-05-06 03:23 | 13.18327 | 120.38172 | 34406 ft | 465 kts | 205° |
| 2026-05-06 03:23 | 13.15426 | 120.36778 | 34764 ft | 465 kts | 205° |
| 2026-05-06 03:23 | 13.12496 | 120.35372 | 35152 ft | 463 kts | 205° |
| 2026-05-06 03:23 | 13.09606 | 120.33985 | 35512 ft | 462 kts | 204° |
| 2026-05-06 03:24 | 13.06714 | 120.32600 | 35787 ft | 463 kts | 205° |
| 2026-05-06 03:24 | 13.03794 | 120.31203 | 36004 ft | 465 kts | 205° |
| 2026-05-06 03:24 | 13.00841 | 120.29793 | 36202 ft | 467 kts | 205° |
| 2026-05-06 03:24 | 12.97932 | 120.28404 | 36416 ft | 469 kts | 206° |
| 2026-05-06 03:25 | 12.94967 | 120.26987 | 36683 ft | 469 kts | 207° |
| 2026-05-06 03:25 | 12.92022 | 120.25573 | 36972 ft | 469 kts | 207° |
| 2026-05-06 03:25 | 12.89131 | 120.24184 | 37212 ft | 469 kts | 207° |
| 2026-05-06 03:25 | 12.86201 | 120.22777 | 37398 ft | 471 kts | 207° |
| 2026-05-06 03:26 | 12.83242 | 120.21357 | 37585 ft | 472 kts | 207° |
| 2026-05-06 03:26 | 12.80250 | 120.19924 | 37775 ft | 473 kts | 207° |
| 2026-05-06 03:26 | 12.77293 | 120.18509 | 37898 ft | 475 kts | 207° |
| 2026-05-06 03:26 | 12.74291 | 120.17072 | 37904 ft | 476 kts | 207° |
| 2026-05-06 03:27 | 12.68325 | 120.14221 | 37908 ft | 476 kts | 207° |
| 2026-05-06 03:27 | 12.62342 | 120.11362 | 37908 ft | 476 kts | 207° |
| 2026-05-06 03:28 | 12.56388 | 120.08520 | 37909 ft | 476 kts | 207° |
| 2026-05-06 03:28 | 12.50388 | 120.05656 | 37908 ft | 476 kts | 207° |
| 2026-05-06 03:29 | 12.44419 | 120.02809 | 37908 ft | 476 kts | 207° |
| 2026-05-06 03:29 | 12.38470 | 119.99973 | 37908 ft | 476 kts | 207° |
| 2026-05-06 03:30 | 12.32464 | 119.97111 | 37909 ft | 476 kts | 207° |
| 2026-05-06 03:30 | 12.26515 | 119.94279 | 37908 ft | 476 kts | 207° |
| 2026-05-06 03:31 | 12.20512 | 119.91421 | 37909 ft | 476 kts | 207° |
| 2026-05-06 03:31 | 12.14530 | 119.88574 | 37909 ft | 476 kts | 207° |
| 2026-05-06 03:32 | 12.08562 | 119.85736 | 37909 ft | 476 kts | 207° |
| 2026-05-06 03:32 | 12.02568 | 119.82888 | 37909 ft | 476 kts | 207° |
| 2026-05-06 03:33 | 11.96612 | 119.80059 | 37909 ft | 476 kts | 207° |
| 2026-05-06 03:33 | 11.90620 | 119.77216 | 37908 ft | 476 kts | 207° |
| 2026-05-06 03:34 | 11.84652 | 119.74384 | 37908 ft | 476 kts | 207° |
| 2026-05-06 03:34 | 11.78674 | 119.71550 | 37908 ft | 476 kts | 207° |
| 2026-05-06 03:35 | 11.72693 | 119.68716 | 37909 ft | 476 kts | 207° |
| 2026-05-06 03:35 | 11.66714 | 119.65900 | 37909 ft | 476 kts | 206° |
| 2026-05-06 03:36 | 11.60686 | 119.63100 | 37908 ft | 476 kts | 206° |
| 2026-05-06 03:36 | 11.58155 | 119.61927 | 37908 ft | 476 kts | 206° |
| 2026-05-06 03:37 | 11.57102 | 119.61440 | 37908 ft | 476 kts | 206° |
| 2026-05-06 03:38 | 11.51107 | 119.58659 | 37360 ft | 476 kts | 206° |
| 2026-05-06 03:38 | 11.48104 | 119.57265 | 36500 ft | 483 kts | 206° |
| 2026-05-06 03:38 | 11.45015 | 119.55833 | 35536 ft | 491 kts | 206° |
| 2026-05-06 03:39 | 11.41936 | 119.54404 | 34629 ft | 497 kts | 206° |
| 2026-05-06 03:39 | 11.38779 | 119.52940 | 33806 ft | 499 kts | 206° |
| 2026-05-06 03:39 | 11.35649 | 119.51490 | 33172 ft | 498 kts | 206° |
| 2026-05-06 03:39 | 11.32530 | 119.50046 | 32650 ft | 493 kts | 206° |
| 2026-05-06 03:40 | 11.29399 | 119.48596 | 32135 ft | 489 kts | 206° |
| 2026-05-06 03:40 | 11.26369 | 119.47194 | 31563 ft | 487 kts | 206° |
| 2026-05-06 03:40 | 11.23284 | 119.45766 | 31027 ft | 484 kts | 206° |
| 2026-05-06 03:40 | 11.20251 | 119.44363 | 30535 ft | 480 kts | 206° |
| 2026-05-06 03:41 | 11.17242 | 119.42970 | 30053 ft | 476 kts | 206° |
| 2026-05-06 03:41 | 11.14252 | 119.41586 | 29568 ft | 472 kts | 206° |
| 2026-05-06 03:41 | 11.11288 | 119.40215 | 29084 ft | 468 kts | 206° |
| 2026-05-06 03:41 | 11.10296 | 119.39757 | 28921 ft | 467 kts | 206° |